Lipton, Canada
Current Conditions -  °F | °C
As of 4:00 AM on Thursday 23 Oct 2014 (Local Time) from CYQR Reporting Station
Clear Clear  
Wind Chill: 29°   Ceiling: Unl
Heat Index: 34°   Visibility: 15mi
Dew Point: 32°   Wind: 6mph
Humidity: 93%   Direction: 110°ESE
Pressure: 29.76"   Gusts: NA
Location:  50.9°N, 103.85°W
Report Text: CYQR 231000Z 11005KT 15SM SKC 01/M00 A2976 RMK SLP096
Loading
Personal Weather Stations






























Interactive Weather Map
Tropical Storm Tracking
New forecast layout! Learn more

10-Day Weather Forecast

Advertisements
Track Severe Weather on mobile